Carauari, Brazil
Current Conditions -  °F | °C
As of 1:00 PM on Thursday 18 Dec 2014 (Local Time) from SKLT Reporting Station
Broken Clouds Broken Clouds  
Wind Chill: 84°   Ceiling: 8000
Heat Index: 94°   Visibility: 6mi
Dew Point: 77°   Wind: 2mph
Humidity: 79%   Direction: NA
Pressure: 29.87"   Gusts: NA
Location:  4.88°S, 66.9°W
Report Text: SKLT 181700Z VRB02KT 9999 SCT012 BKN080 29/25 A2987
Loading
Personal Weather Stations






























Interactive Weather Map New forecast layout! Learn more

10-Day Weather Forecast

Advertisements
Track Severe Weather on mobile